THY6UZ LTFM-EGKK
Flight info
| Callsign | THY6UZ |
|---|---|
| Flight time | N/A |
| Altitude | 34000 |
| Route | VADEN1E/36 VADEN N618 GOL Y520 LUKOV Q8 DOLAP DCT VEBAR DCT BOSNA DCT RIFEN DCT SAFFA DCT ELMUR L613 RIPUS DCT DITON DCT HOC DCT LUL DCT RLP DCT ROTSI DCT KOTUN DCT NINAL DCT KESAX DCT KUNAV |
| Aircraft | A321/M-SDE3FGHIRWY/LB1 |
Departure
| Time | 2026-05-05 11:38 |
|---|---|
| Airport | İstanbul Airport (LTFM) |
Arrival
| Time | N/A |
|---|---|
| Airport | London Gatwick Airport (EGKK) |
| Time | Latitude | Longitude | Altitude | Speed | Heading |
|---|---|---|---|---|---|
| 2026-05-05 10:13 | 41.26459 | 28.74920 | 314 ft | 0 kts | 287° |
| 2026-05-05 11:30 | 41.26453 | 28.74947 | 313 ft | 4 kts | 285° |
| 2026-05-05 11:30 | 41.26447 | 28.74982 | 312 ft | 4 kts | 280° |
| 2026-05-05 11:30 | 41.26443 | 28.75017 | 311 ft | 4 kts | 271° |
| 2026-05-05 11:30 | 41.26446 | 28.75051 | 311 ft | 4 kts | 242° |
| 2026-05-05 11:31 | 41.26456 | 28.75067 | 310 ft | 0 kts | 197° |
| 2026-05-05 11:34 | 41.26451 | 28.75065 | 312 ft | 2 kts | 197° |
| 2026-05-05 11:34 | 41.26429 | 28.75056 | 312 ft | 5 kts | 196° |
| 2026-05-05 11:35 | 41.26391 | 28.75041 | 313 ft | 6 kts | 197° |
| 2026-05-05 11:35 | 41.26347 | 28.75024 | 313 ft | 7 kts | 197° |
| 2026-05-05 11:35 | 41.26300 | 28.75006 | 313 ft | 7 kts | 197° |
| 2026-05-05 11:35 | 41.26248 | 28.75001 | 313 ft | 7 kts | 159° |
| 2026-05-05 11:36 | 41.26240 | 28.75051 | 313 ft | 7 kts | 96° |
| 2026-05-05 11:36 | 41.26240 | 28.75129 | 313 ft | 10 kts | 89° |
| 2026-05-05 11:36 | 41.26241 | 28.75220 | 314 ft | 9 kts | 89° |
| 2026-05-05 11:36 | 41.26241 | 28.75293 | 314 ft | 8 kts | 89° |
| 2026-05-05 11:37 | 41.26242 | 28.75369 | 314 ft | 9 kts | 88° |
| 2026-05-05 11:37 | 41.26244 | 28.75465 | 314 ft | 13 kts | 89° |
| 2026-05-05 11:37 | 41.26245 | 28.75590 | 314 ft | 13 kts | 89° |
| 2026-05-05 11:37 | 41.26288 | 28.75668 | 316 ft | 12 kts | 6° |
| 2026-05-05 11:38 | 41.26474 | 28.75664 | 311 ft | 58 kts | 360° |
| 2026-05-05 11:38 | 41.27094 | 28.75657 | 303 ft | 120 kts | 359° |
| 2026-05-05 11:38 | 41.28112 | 28.75648 | 329 ft | 167 kts | 1° |
| 2026-05-05 11:38 | 41.29277 | 28.75632 | 1047 ft | 165 kts | 1° |
| 2026-05-05 11:39 | 41.30389 | 28.76018 | 1566 ft | 174 kts | 32° |
| 2026-05-05 11:39 | 41.31437 | 28.76990 | 1771 ft | 193 kts | 32° |
| 2026-05-05 11:39 | 41.32622 | 28.78010 | 1926 ft | 212 kts | 28° |
| 2026-05-05 11:39 | 41.34087 | 28.78545 | 2167 ft | 230 kts | 358° |
| 2026-05-05 11:40 | 41.35637 | 28.77857 | 2551 ft | 245 kts | 323° |
| 2026-05-05 11:40 | 41.36724 | 28.76070 | 3240 ft | 251 kts | 305° |
| 2026-05-05 11:40 | 41.37645 | 28.74077 | 3925 ft | 254 kts | 303° |
| 2026-05-05 11:40 | 41.38550 | 28.72052 | 4639 ft | 255 kts | 303° |
| 2026-05-05 11:41 | 41.39468 | 28.70015 | 5354 ft | 257 kts | 304° |
| 2026-05-05 11:41 | 41.40321 | 28.68153 | 5954 ft | 259 kts | 305° |
| 2026-05-05 11:41 | 41.41274 | 28.66096 | 6591 ft | 262 kts | 306° |
| 2026-05-05 11:41 | 41.42226 | 28.64048 | 7218 ft | 264 kts | 306° |
| 2026-05-05 11:42 | 41.43199 | 28.61955 | 7859 ft | 267 kts | 306° |
| 2026-05-05 11:42 | 41.44177 | 28.59844 | 8498 ft | 269 kts | 306° |
| 2026-05-05 11:42 | 41.45161 | 28.57710 | 9140 ft | 271 kts | 306° |
| 2026-05-05 11:42 | 41.46155 | 28.55555 | 9767 ft | 274 kts | 306° |
| 2026-05-05 11:43 | 41.46818 | 28.54117 | 10156 ft | 276 kts | 306° |
| 2026-05-05 11:43 | 41.47863 | 28.51860 | 10341 ft | 295 kts | 306° |
| 2026-05-05 11:43 | 41.48978 | 28.49459 | 10459 ft | 314 kts | 306° |
| 2026-05-05 11:43 | 41.50161 | 28.46905 | 10586 ft | 333 kts | 305° |
| 2026-05-05 11:44 | 41.51399 | 28.44219 | 10900 ft | 343 kts | 305° |
| 2026-05-05 11:44 | 41.52651 | 28.41487 | 11401 ft | 347 kts | 305° |
| 2026-05-05 11:44 | 41.53914 | 28.38722 | 11935 ft | 351 kts | 305° |
| 2026-05-05 11:44 | 41.55191 | 28.35922 | 12474 ft | 354 kts | 305° |
| 2026-05-05 11:45 | 41.56482 | 28.33090 | 13018 ft | 358 kts | 305° |
| 2026-05-05 11:45 | 41.57783 | 28.30242 | 13560 ft | 361 kts | 305° |
| 2026-05-05 11:45 | 41.59084 | 28.27398 | 14051 ft | 365 kts | 305° |
| 2026-05-05 11:45 | 41.60410 | 28.24496 | 14544 ft | 367 kts | 305° |
| 2026-05-05 11:46 | 41.61739 | 28.21580 | 15094 ft | 368 kts | 305° |
| 2026-05-05 11:46 | 41.63074 | 28.18650 | 15607 ft | 371 kts | 305° |
| 2026-05-05 11:46 | 41.64421 | 28.15694 | 16101 ft | 373 kts | 305° |
| 2026-05-05 11:46 | 41.65775 | 28.12718 | 16618 ft | 376 kts | 305° |
| 2026-05-05 11:47 | 41.67137 | 28.09720 | 17114 ft | 378 kts | 305° |
| 2026-05-05 11:47 | 41.68510 | 28.06700 | 17609 ft | 381 kts | 305° |
| 2026-05-05 11:47 | 41.69895 | 28.03654 | 18106 ft | 384 kts | 305° |
| 2026-05-05 11:47 | 41.71287 | 28.00589 | 18555 ft | 387 kts | 304° |
| 2026-05-05 11:48 | 41.74090 | 27.94386 | 19418 ft | 392 kts | 304° |
| 2026-05-05 11:48 | 41.75508 | 27.91245 | 19833 ft | 395 kts | 304° |
| 2026-05-05 11:48 | 41.76913 | 27.88121 | 20239 ft | 397 kts | 304° |
| 2026-05-05 11:49 | 41.78347 | 27.84934 | 20637 ft | 400 kts | 304° |
| 2026-05-05 11:49 | 41.79790 | 27.81728 | 21041 ft | 402 kts | 304° |
| 2026-05-05 11:49 | 41.81245 | 27.78498 | 21431 ft | 405 kts | 304° |
| 2026-05-05 11:49 | 41.82704 | 27.75253 | 21820 ft | 407 kts | 303° |
| 2026-05-05 11:50 | 41.84156 | 27.72014 | 22198 ft | 409 kts | 304° |
| 2026-05-05 11:50 | 41.85625 | 27.68735 | 22616 ft | 411 kts | 304° |
| 2026-05-05 11:50 | 41.87100 | 27.65438 | 22991 ft | 413 kts | 304° |
| 2026-05-05 11:50 | 41.88584 | 27.62113 | 23364 ft | 415 kts | 303° |
| 2026-05-05 11:51 | 41.90069 | 27.58782 | 23696 ft | 417 kts | 303° |
| 2026-05-05 11:51 | 41.91564 | 27.55430 | 24005 ft | 419 kts | 303° |
| 2026-05-05 11:51 | 41.93067 | 27.52059 | 24311 ft | 421 kts | 303° |
| 2026-05-05 11:51 | 41.94572 | 27.48680 | 24628 ft | 422 kts | 303° |
| 2026-05-05 11:52 | 41.96061 | 27.45334 | 24941 ft | 423 kts | 303° |
| 2026-05-05 11:52 | 41.97576 | 27.41926 | 25271 ft | 424 kts | 303° |
| 2026-05-05 11:52 | 41.99092 | 27.38510 | 25570 ft | 426 kts | 303° |
| 2026-05-05 11:52 | 42.00610 | 27.35083 | 25858 ft | 428 kts | 303° |
| 2026-05-05 11:53 | 42.02137 | 27.31635 | 26161 ft | 429 kts | 303° |
| 2026-05-05 11:53 | 42.03665 | 27.28175 | 26439 ft | 431 kts | 303° |
| 2026-05-05 11:53 | 42.05201 | 27.24698 | 26725 ft | 433 kts | 303° |
| 2026-05-05 11:53 | 42.06850 | 27.21301 | 26996 ft | 432 kts | 310° |
| 2026-05-05 11:54 | 42.08809 | 27.18239 | 27291 ft | 431 kts | 314° |
| 2026-05-05 11:54 | 42.10815 | 27.15237 | 27588 ft | 432 kts | 314° |
| 2026-05-05 11:54 | 42.12825 | 27.12222 | 27878 ft | 433 kts | 314° |
| 2026-05-05 11:54 | 42.14818 | 27.09229 | 28159 ft | 435 kts | 314° |
| 2026-05-05 11:55 | 42.16840 | 27.06189 | 28438 ft | 436 kts | 314° |
| 2026-05-05 11:55 | 42.18867 | 27.03138 | 28724 ft | 437 kts | 314° |
| 2026-05-05 11:55 | 42.20900 | 27.00073 | 29115 ft | 436 kts | 314° |
| 2026-05-05 11:55 | 42.22925 | 26.97017 | 29496 ft | 435 kts | 314° |
| 2026-05-05 11:56 | 42.24936 | 26.93977 | 29900 ft | 433 kts | 314° |
| 2026-05-05 11:56 | 42.26949 | 26.90929 | 30270 ft | 432 kts | 314° |
| 2026-05-05 11:56 | 42.28922 | 26.87930 | 30577 ft | 431 kts | 314° |
| 2026-05-05 11:56 | 42.30917 | 26.84895 | 30871 ft | 431 kts | 314° |
| 2026-05-05 11:57 | 42.32906 | 26.81868 | 31162 ft | 431 kts | 314° |
| 2026-05-05 11:57 | 42.34903 | 26.78833 | 31423 ft | 431 kts | 314° |
| 2026-05-05 11:57 | 42.36896 | 26.75803 | 31695 ft | 430 kts | 314° |
| 2026-05-05 11:57 | 42.38886 | 26.72775 | 31960 ft | 430 kts | 314° |
| 2026-05-05 11:58 | 42.40871 | 26.69750 | 32248 ft | 429 kts | 314° |
| 2026-05-05 11:58 | 42.42824 | 26.66771 | 32519 ft | 428 kts | 314° |
| 2026-05-05 11:58 | 42.44797 | 26.63754 | 32781 ft | 428 kts | 314° |
| 2026-05-05 11:58 | 42.46767 | 26.60739 | 33046 ft | 427 kts | 314° |
| 2026-05-05 11:59 | 42.48738 | 26.57720 | 33314 ft | 426 kts | 314° |
| 2026-05-05 11:59 | 42.50711 | 26.54695 | 33576 ft | 426 kts | 314° |
| 2026-05-05 11:59 | 42.52648 | 26.51653 | 33835 ft | 427 kts | 310° |
| 2026-05-05 11:59 | 42.54270 | 26.48305 | 34014 ft | 430 kts | 301° |
| 2026-05-05 12:00 | 42.56451 | 26.40693 | 34057 ft | 434 kts | 292° |
| 2026-05-05 12:00 | 42.58413 | 26.32943 | 34059 ft | 434 kts | 292° |
| 2026-05-05 12:01 | 42.60381 | 26.25195 | 34059 ft | 434 kts | 292° |
| 2026-05-05 12:01 | 42.62331 | 26.17471 | 34062 ft | 433 kts | 292° |
| 2026-05-05 12:02 | 42.64278 | 26.09719 | 34064 ft | 433 kts | 292° |
| 2026-05-05 12:02 | 42.66218 | 26.01976 | 34072 ft | 433 kts | 292° |
| 2026-05-05 12:03 | 42.68155 | 25.94225 | 34073 ft | 433 kts | 292° |
| 2026-05-05 12:03 | 42.70085 | 25.86459 | 34055 ft | 433 kts | 292° |
| 2026-05-05 12:04 | 42.72014 | 25.78690 | 34060 ft | 433 kts | 292° |
| 2026-05-05 12:04 | 42.73925 | 25.70974 | 34061 ft | 433 kts | 292° |
| 2026-05-05 12:05 | 42.75841 | 25.63194 | 34061 ft | 433 kts | 292° |
| 2026-05-05 12:05 | 42.77751 | 25.55414 | 34047 ft | 433 kts | 292° |
| 2026-05-05 12:06 | 42.79641 | 25.47670 | 34058 ft | 433 kts | 292° |
| 2026-05-05 12:06 | 42.81543 | 25.39875 | 34062 ft | 433 kts | 292° |
| 2026-05-05 12:07 | 42.83441 | 25.32069 | 34068 ft | 433 kts | 292° |
| 2026-05-05 12:07 | 42.85323 | 25.24278 | 34065 ft | 433 kts | 292° |
| 2026-05-05 12:08 | 42.87194 | 25.16526 | 34067 ft | 433 kts | 292° |
| 2026-05-05 12:08 | 42.89078 | 25.08725 | 34067 ft | 433 kts | 292° |
| 2026-05-05 12:09 | 42.90952 | 25.00901 | 34070 ft | 433 kts | 292° |
| 2026-05-05 12:09 | 42.92820 | 24.93095 | 34052 ft | 432 kts | 292° |
| 2026-05-05 12:10 | 42.94687 | 24.85295 | 34068 ft | 432 kts | 292° |
| 2026-05-05 12:10 | 42.96528 | 24.77536 | 34073 ft | 432 kts | 292° |
| 2026-05-05 12:11 | 42.98375 | 24.69714 | 34070 ft | 432 kts | 292° |
| 2026-05-05 12:11 | 43.00218 | 24.61894 | 34073 ft | 432 kts | 292° |
| 2026-05-05 12:12 | 43.02054 | 24.54075 | 34065 ft | 432 kts | 292° |
| 2026-05-05 12:12 | 43.03881 | 24.46258 | 34071 ft | 432 kts | 292° |
| 2026-05-05 12:13 | 43.05702 | 24.38432 | 34077 ft | 431 kts | 292° |
| 2026-05-05 12:13 | 43.07527 | 24.30604 | 34077 ft | 431 kts | 292° |
| 2026-05-05 12:14 | 43.09403 | 24.22877 | 34062 ft | 428 kts | 297° |
| 2026-05-05 12:14 | 43.12360 | 24.15899 | 34070 ft | 423 kts | 306° |
| 2026-05-05 12:15 | 43.15501 | 24.09079 | 34067 ft | 423 kts | 305° |
| 2026-05-05 12:15 | 43.18624 | 24.02229 | 34071 ft | 423 kts | 305° |
| 2026-05-05 12:16 | 43.21754 | 23.95358 | 34047 ft | 424 kts | 305° |
| 2026-05-05 12:16 | 43.24861 | 23.88530 | 34053 ft | 424 kts | 305° |
| 2026-05-05 12:17 | 43.27779 | 23.81476 | 34059 ft | 428 kts | 295° |
| 2026-05-05 12:17 | 43.29125 | 23.73435 | 34058 ft | 436 kts | 281° |
| 2026-05-05 12:18 | 43.29857 | 23.65172 | 34048 ft | 436 kts | 281° |
| 2026-05-05 12:18 | 43.30590 | 23.56958 | 34056 ft | 435 kts | 281° |
| 2026-05-05 12:19 | 43.31324 | 23.48697 | 34065 ft | 435 kts | 281° |
| 2026-05-05 12:19 | 43.32045 | 23.40449 | 34066 ft | 435 kts | 281° |
| 2026-05-05 12:20 | 43.32754 | 23.32192 | 34049 ft | 435 kts | 281° |
| 2026-05-05 12:20 | 43.33462 | 23.23946 | 34068 ft | 433 kts | 281° |
| 2026-05-05 12:21 | 43.34161 | 23.15776 | 34070 ft | 433 kts | 281° |
| 2026-05-05 12:21 | 43.34861 | 23.07553 | 34071 ft | 432 kts | 280° |
| 2026-05-05 12:22 | 43.35556 | 22.99323 | 34071 ft | 432 kts | 281° |
| 2026-05-05 12:22 | 43.36243 | 22.91162 | 34061 ft | 432 kts | 280° |
| 2026-05-05 12:23 | 43.36900 | 22.83126 | 34069 ft | 431 kts | 279° |
| 2026-05-05 12:23 | 43.37825 | 22.75013 | 34069 ft | 426 kts | 290° |
| 2026-05-05 12:24 | 43.39622 | 22.67256 | 34061 ft | 426 kts | 290° |
| 2026-05-05 12:24 | 43.41418 | 22.59491 | 34047 ft | 426 kts | 290° |
| 2026-05-05 12:25 | 43.43186 | 22.51762 | 34050 ft | 426 kts | 290° |
| 2026-05-05 12:25 | 43.44958 | 22.43973 | 34052 ft | 426 kts | 290° |
| 2026-05-05 12:26 | 43.46714 | 22.36225 | 34052 ft | 427 kts | 290° |
| 2026-05-05 12:26 | 43.48483 | 22.28420 | 34042 ft | 427 kts | 289° |
| 2026-05-05 12:27 | 43.50242 | 22.20623 | 34046 ft | 426 kts | 289° |
| 2026-05-05 12:27 | 43.51713 | 22.14084 | 34050 ft | 426 kts | 289° |
| 2026-05-05 12:28 | 43.53450 | 22.06342 | 34044 ft | 426 kts | 289° |
| 2026-05-05 12:28 | 43.55197 | 21.98517 | 34044 ft | 426 kts | 289° |
| 2026-05-05 12:29 | 43.56929 | 21.90693 | 34048 ft | 426 kts | 289° |
| 2026-05-05 12:29 | 43.58662 | 21.82870 | 34043 ft | 426 kts | 289° |
| 2026-05-05 12:30 | 43.60386 | 21.75089 | 34051 ft | 426 kts | 289° |
| 2026-05-05 12:30 | 43.62107 | 21.67255 | 34052 ft | 426 kts | 289° |
| 2026-05-05 12:31 | 43.63819 | 21.59430 | 34035 ft | 426 kts | 288° |
| 2026-05-05 12:31 | 43.65533 | 21.51596 | 34038 ft | 425 kts | 288° |
| 2026-05-05 12:32 | 43.67227 | 21.43813 | 34035 ft | 426 kts | 288° |
| 2026-05-05 12:32 | 43.68926 | 21.35969 | 34035 ft | 425 kts | 288° |
| 2026-05-05 12:33 | 43.70622 | 21.28127 | 34023 ft | 425 kts | 288° |
| 2026-05-05 12:33 | 43.72303 | 21.20325 | 34029 ft | 426 kts | 288° |
| 2026-05-05 12:34 | 43.73984 | 21.12471 | 34036 ft | 425 kts | 288° |
| 2026-05-05 12:34 | 43.75661 | 21.04619 | 34043 ft | 425 kts | 288° |
| 2026-05-05 12:35 | 43.77324 | 20.96798 | 34035 ft | 425 kts | 288° |
| 2026-05-05 12:35 | 43.78988 | 20.88936 | 34035 ft | 425 kts | 287° |
| 2026-05-05 12:36 | 43.80648 | 20.81077 | 34047 ft | 424 kts | 287° |
| 2026-05-05 12:36 | 43.82291 | 20.73274 | 34042 ft | 424 kts | 287° |
| 2026-05-05 12:37 | 43.83937 | 20.65424 | 34037 ft | 424 kts | 287° |
| 2026-05-05 12:37 | 43.85582 | 20.57582 | 34037 ft | 424 kts | 287° |
| 2026-05-05 12:38 | 43.87214 | 20.49721 | 34042 ft | 423 kts | 287° |
| 2026-05-05 12:38 | 43.88834 | 20.41865 | 34037 ft | 423 kts | 287° |
| 2026-05-05 12:39 | 43.90444 | 20.34055 | 34043 ft | 423 kts | 287° |
| 2026-05-05 12:39 | 43.92063 | 20.26198 | 34033 ft | 423 kts | 286° |
| 2026-05-05 12:40 | 43.93675 | 20.18346 | 34026 ft | 423 kts | 286° |
| 2026-05-05 12:40 | 43.95283 | 20.10489 | 34028 ft | 423 kts | 286° |
| 2026-05-05 12:41 | 43.96880 | 20.02623 | 34036 ft | 423 kts | 286° |
| 2026-05-05 12:41 | 43.98457 | 19.94799 | 34025 ft | 423 kts | 286° |
| 2026-05-05 12:42 | 44.00040 | 19.86929 | 34021 ft | 422 kts | 286° |
| 2026-05-05 12:42 | 44.01622 | 19.79072 | 34037 ft | 421 kts | 286° |
| 2026-05-05 12:43 | 44.03194 | 19.71230 | 34037 ft | 421 kts | 286° |
| 2026-05-05 12:43 | 44.04746 | 19.63430 | 34037 ft | 421 kts | 285° |
| 2026-05-05 12:44 | 44.06302 | 19.55586 | 34013 ft | 421 kts | 285° |
| 2026-05-05 12:44 | 44.07855 | 19.47741 | 34029 ft | 420 kts | 285° |
| 2026-05-05 12:45 | 44.09399 | 19.39896 | 34020 ft | 420 kts | 285° |
| 2026-05-05 12:45 | 44.10943 | 19.32050 | 34028 ft | 420 kts | 285° |
| 2026-05-05 12:46 | 44.12457 | 19.24253 | 34015 ft | 419 kts | 285° |
| 2026-05-05 12:46 | 44.13972 | 19.16396 | 34026 ft | 419 kts | 284° |
| 2026-05-05 12:47 | 44.15355 | 19.08507 | 34025 ft | 419 kts | 283° |
| 2026-05-05 12:47 | 44.16660 | 19.00602 | 34021 ft | 419 kts | 283° |
| 2026-05-05 12:48 | 44.17969 | 18.92747 | 34019 ft | 418 kts | 283° |
| 2026-05-05 12:48 | 44.19304 | 18.84845 | 34020 ft | 418 kts | 283° |
| 2026-05-05 12:49 | 44.20633 | 18.76959 | 34020 ft | 418 kts | 283° |
| 2026-05-05 12:49 | 44.21953 | 18.69065 | 34029 ft | 418 kts | 283° |
| 2026-05-05 12:50 | 44.23258 | 18.61171 | 34027 ft | 418 kts | 283° |
| 2026-05-05 12:50 | 44.24569 | 18.53270 | 34026 ft | 418 kts | 283° |
| 2026-05-05 12:51 | 44.25870 | 18.45415 | 34024 ft | 418 kts | 283° |
| 2026-05-05 12:51 | 44.27168 | 18.37499 | 34024 ft | 418 kts | 283° |
| 2026-05-05 12:52 | 44.28457 | 18.29609 | 34020 ft | 418 kts | 283° |
| 2026-05-05 12:52 | 44.29742 | 18.21695 | 34021 ft | 418 kts | 283° |
| 2026-05-05 12:53 | 44.31026 | 18.13773 | 34011 ft | 418 kts | 282° |
| 2026-05-05 12:53 | 44.32307 | 18.05841 | 34008 ft | 418 kts | 282° |
| 2026-05-05 12:54 | 44.34198 | 17.93992 | 34010 ft | 418 kts | 282° |
| 2026-05-05 12:55 | 44.35463 | 17.86047 | 34027 ft | 419 kts | 282° |
| 2026-05-05 12:55 | 44.36740 | 17.78142 | 34004 ft | 420 kts | 284° |
| 2026-05-05 12:56 | 44.39088 | 17.70624 | 34006 ft | 424 kts | 296° |
| 2026-05-05 12:56 | 44.41882 | 17.63344 | 34021 ft | 424 kts | 296° |
| 2026-05-05 12:57 | 44.44644 | 17.56096 | 34031 ft | 424 kts | 296° |
| 2026-05-05 12:57 | 44.47419 | 17.48791 | 34020 ft | 425 kts | 295° |
| 2026-05-05 12:58 | 44.50196 | 17.41457 | 34014 ft | 427 kts | 295° |
| 2026-05-05 12:58 | 44.52956 | 17.34136 | 34003 ft | 428 kts | 295° |
| 2026-05-05 12:59 | 44.55735 | 17.26750 | 34005 ft | 429 kts | 295° |
| 2026-05-05 12:59 | 44.58518 | 17.19349 | 34003 ft | 429 kts | 296° |
| 2026-05-05 13:00 | 44.62704 | 17.08162 | 33992 ft | 433 kts | 295° |
| 2026-05-05 13:01 | 44.68290 | 16.93159 | 33998 ft | 435 kts | 295° |
| 2026-05-05 13:01 | 44.71093 | 16.85612 | 34019 ft | 436 kts | 295° |
| 2026-05-05 13:02 | 44.73895 | 16.78035 | 34022 ft | 436 kts | 295° |
| 2026-05-05 13:02 | 44.76691 | 16.70451 | 34012 ft | 437 kts | 295° |
| 2026-05-05 13:03 | 44.79476 | 16.62894 | 34011 ft | 437 kts | 295° |
| 2026-05-05 13:03 | 44.82277 | 16.55284 | 34021 ft | 437 kts | 295° |
| 2026-05-05 13:04 | 44.85066 | 16.47664 | 34029 ft | 437 kts | 295° |
| 2026-05-05 13:04 | 44.87844 | 16.40037 | 34031 ft | 437 kts | 294° |
| 2026-05-05 13:05 | 44.90620 | 16.32412 | 34029 ft | 437 kts | 295° |
| 2026-05-05 13:05 | 44.93393 | 16.24770 | 34023 ft | 437 kts | 294° |
| 2026-05-05 13:06 | 44.96161 | 16.17128 | 34036 ft | 437 kts | 295° |
| 2026-05-05 13:06 | 44.98926 | 16.09467 | 34030 ft | 438 kts | 295° |
| 2026-05-05 13:07 | 45.01670 | 16.01833 | 34032 ft | 438 kts | 295° |
| 2026-05-05 13:07 | 45.04431 | 15.94130 | 34038 ft | 438 kts | 295° |
| 2026-05-05 13:08 | 45.07192 | 15.86427 | 34045 ft | 439 kts | 295° |
| 2026-05-05 13:08 | 45.09947 | 15.78715 | 34035 ft | 439 kts | 295° |
| 2026-05-05 13:09 | 45.12696 | 15.70992 | 34034 ft | 439 kts | 295° |
| 2026-05-05 13:09 | 45.15420 | 15.63315 | 34032 ft | 438 kts | 295° |
| 2026-05-05 13:10 | 45.18154 | 15.55589 | 34035 ft | 438 kts | 294° |
| 2026-05-05 13:10 | 45.20884 | 15.47852 | 34033 ft | 438 kts | 294° |
| 2026-05-05 13:11 | 45.23604 | 15.40121 | 34030 ft | 438 kts | 294° |
| 2026-05-05 13:11 | 45.26317 | 15.32371 | 34036 ft | 439 kts | 294° |
| 2026-05-05 13:12 | 45.29011 | 15.24651 | 34031 ft | 437 kts | 294° |
| 2026-05-05 13:12 | 45.31593 | 15.17249 | 34027 ft | 437 kts | 294° |
| 2026-05-05 13:13 | 45.34294 | 15.09499 | 34029 ft | 437 kts | 294° |
| 2026-05-05 13:13 | 45.36532 | 15.03053 | 34030 ft | 437 kts | 294° |
| 2026-05-05 13:14 | 45.39657 | 14.94017 | 34036 ft | 437 kts | 294° |
| 2026-05-05 13:14 | 45.41884 | 14.87557 | 34048 ft | 438 kts | 294° |
| 2026-05-05 13:15 | 45.44562 | 14.79779 | 34049 ft | 437 kts | 293° |
| 2026-05-05 13:15 | 45.47232 | 14.72000 | 34054 ft | 437 kts | 294° |
| 2026-05-05 13:16 | 45.49897 | 14.64210 | 34052 ft | 436 kts | 293° |
| 2026-05-05 13:16 | 45.52547 | 14.56416 | 34053 ft | 436 kts | 293° |
| 2026-05-05 13:17 | 45.55190 | 14.48631 | 34064 ft | 435 kts | 293° |
| 2026-05-05 13:17 | 45.57811 | 14.40921 | 34057 ft | 433 kts | 293° |
| 2026-05-05 13:18 | 45.60432 | 14.33175 | 34055 ft | 432 kts | 293° |
| 2026-05-05 13:18 | 45.63038 | 14.25428 | 34050 ft | 432 kts | 293° |
| 2026-05-05 13:19 | 45.65621 | 14.17725 | 34052 ft | 431 kts | 293° |
| 2026-05-05 13:19 | 45.68213 | 14.09992 | 34053 ft | 430 kts | 293° |
| 2026-05-05 13:20 | 45.70791 | 14.02288 | 34057 ft | 429 kts | 292° |
| 2026-05-05 13:20 | 45.73370 | 13.94549 | 34045 ft | 430 kts | 292° |
| 2026-05-05 13:21 | 45.75928 | 13.86828 | 34040 ft | 431 kts | 292° |
| 2026-05-05 13:21 | 45.78497 | 13.79054 | 34062 ft | 431 kts | 292° |
| 2026-05-05 13:22 | 45.81066 | 13.71286 | 34069 ft | 431 kts | 292° |
| 2026-05-05 13:22 | 45.83614 | 13.63544 | 34079 ft | 432 kts | 292° |
| 2026-05-05 13:23 | 45.86135 | 13.55736 | 34079 ft | 431 kts | 291° |
| 2026-05-05 13:23 | 45.88484 | 13.47829 | 34090 ft | 429 kts | 290° |
| 2026-05-05 13:24 | 45.90749 | 13.39935 | 34089 ft | 426 kts | 290° |
| 2026-05-05 13:24 | 45.93014 | 13.32127 | 34081 ft | 425 kts | 290° |
| 2026-05-05 13:25 | 45.95310 | 13.24308 | 34061 ft | 424 kts | 290° |
| 2026-05-05 13:25 | 45.97603 | 13.16498 | 34059 ft | 423 kts | 290° |
| 2026-05-05 13:26 | 45.99884 | 13.08707 | 34056 ft | 421 kts | 290° |
| 2026-05-05 13:26 | 46.02124 | 13.00980 | 34052 ft | 420 kts | 290° |
| 2026-05-05 13:27 | 46.04362 | 12.93223 | 34051 ft | 419 kts | 290° |
| 2026-05-05 13:27 | 46.06613 | 12.85457 | 34046 ft | 419 kts | 290° |
| 2026-05-05 13:28 | 46.08847 | 12.77709 | 34056 ft | 419 kts | 289° |
| 2026-05-05 13:28 | 46.11070 | 12.69953 | 34055 ft | 419 kts | 289° |
| 2026-05-05 13:29 | 46.13278 | 12.62188 | 34050 ft | 419 kts | 289° |
| 2026-05-05 13:29 | 46.15484 | 12.54413 | 34049 ft | 419 kts | 289° |
| 2026-05-05 13:30 | 46.17693 | 12.46630 | 34043 ft | 418 kts | 289° |
| 2026-05-05 13:30 | 46.19895 | 12.38861 | 34045 ft | 418 kts | 289° |
| 2026-05-05 13:31 | 46.22078 | 12.31131 | 34037 ft | 418 kts | 289° |
| 2026-05-05 13:31 | 46.24270 | 12.23337 | 34025 ft | 417 kts | 288° |
| 2026-05-05 13:32 | 46.26447 | 12.15555 | 34022 ft | 417 kts | 288° |
| 2026-05-05 13:32 | 46.28614 | 12.07802 | 34022 ft | 418 kts | 289° |
| 2026-05-05 13:33 | 46.30781 | 12.00033 | 34012 ft | 418 kts | 288° |
| 2026-05-05 13:33 | 46.32948 | 11.92217 | 34001 ft | 418 kts | 288° |
| 2026-05-05 13:34 | 46.35103 | 11.84440 | 34001 ft | 419 kts | 288° |
| 2026-05-05 13:34 | 46.37266 | 11.76595 | 33995 ft | 419 kts | 288° |
| 2026-05-05 13:35 | 46.39422 | 11.68734 | 33999 ft | 420 kts | 288° |
| 2026-05-05 13:35 | 46.41580 | 11.60865 | 34000 ft | 420 kts | 288° |
| 2026-05-05 13:36 | 46.43730 | 11.52988 | 34002 ft | 420 kts | 288° |
| 2026-05-05 13:36 | 46.45861 | 11.45148 | 34008 ft | 420 kts | 288° |
| 2026-05-05 13:37 | 46.48006 | 11.37250 | 34006 ft | 420 kts | 288° |
| 2026-05-05 13:37 | 46.48714 | 11.34640 | 34009 ft | 420 kts | 288° |